sensor_id;sensor_type;location;lat;lon;timestamp;temperature;humidity
74364;DHT22;62797;49.740;10.154;2023-10-13T00:01:58;16.30;76.90
74364;DHT22;62797;49.740;10.154;2023-10-13T00:04:28;16.30;77.90
74364;DHT22;62797;49.740;10.154;2023-10-13T00:06:55;16.30;77.10
74364;DHT22;62797;49.740;10.154;2023-10-13T00:09:24;16.20;77.30
74364;DHT22;62797;49.740;10.154;2023-10-13T00:11:52;16.20;77.40
74364;DHT22;62797;49.740;10.154;2023-10-13T00:14:22;16.20;77.30
74364;DHT22;62797;49.740;10.154;2023-10-13T00:16:48;16.20;77.40
74364;DHT22;62797;49.740;10.154;2023-10-13T00:19:49;16.30;77.40
74364;DHT22;62797;49.740;10.154;2023-10-13T00:22:18;16.30;77.20
74364;DHT22;62797;49.740;10.154;2023-10-13T00:24:45;16.30;76.90
74364;DHT22;62797;49.740;10.154;2023-10-13T00:27:21;16.40;76.80
74364;DHT22;62797;49.740;10.154;2023-10-13T00:29:56;16.40;76.60
74364;DHT22;62797;49.740;10.154;2023-10-13T00:32:42;16.30;76.90
74364;DHT22;62797;49.740;10.154;2023-10-13T00:35:11;16.40;76.80
74364;DHT22;62797;49.740;10.154;2023-10-13T00:37:53;16.40;76.50
74364;DHT22;62797;49.740;10.154;2023-10-13T00:40:22;16.40;76.50
74364;DHT22;62797;49.740;10.154;2023-10-13T00:43:01;16.40;76.40
74364;DHT22;62797;49.740;10.154;2023-10-13T00:45:49;16.40;76.70
74364;DHT22;62797;49.740;10.154;2023-10-13T00:48:33;16.40;76.30
74364;DHT22;62797;49.740;10.154;2023-10-13T00:51:06;16.50;76.30
74364;DHT22;62797;49.740;10.154;2023-10-13T00:53:36;16.50;76.10
74364;DHT22;62797;49.740;10.154;2023-10-13T00:56:10;16.50;76.40
74364;DHT22;62797;49.740;10.154;2023-10-13T00:58:47;16.50;76.50
74364;DHT22;62797;49.740;10.154;2023-10-13T01:01:15;16.50;76.50
74364;DHT22;62797;49.740;10.154;2023-10-13T01:03:50;16.50;76.50
74364;DHT22;62797;49.740;10.154;2023-10-13T01:06:22;16.50;76.60
74364;DHT22;62797;49.740;10.154;2023-10-13T01:09:05;16.50;76.20
74364;DHT22;62797;49.740;10.154;2023-10-13T01:11:44;16.60;75.70
74364;DHT22;62797;49.740;10.154;2023-10-13T01:14:11;16.50;75.80
74364;DHT22;62797;49.740;10.154;2023-10-13T01:16:38;16.50;76.00
74364;DHT22;62797;49.740;10.154;2023-10-13T01:19:14;16.40;76.00
74364;DHT22;62797;49.740;10.154;2023-10-13T01:21:42;16.40;76.10
74364;DHT22;62797;49.740;10.154;2023-10-13T01:24:10;16.40;76.50
74364;DHT22;62797;49.740;10.154;2023-10-13T01:26:40;16.30;76.30
74364;DHT22;62797;49.740;10.154;2023-10-13T01:29:08;16.30;76.10
74364;DHT22;62797;49.740;10.154;2023-10-13T01:31:42;16.20;75.90
74364;DHT22;62797;49.740;10.154;2023-10-13T01:34:12;16.20;76.20
74364;DHT22;62797;49.740;10.154;2023-10-13T01:36:38;16.20;76.70
74364;DHT22;62797;49.740;10.154;2023-10-13T01:39:07;16.20;76.90
74364;DHT22;62797;49.740;10.154;2023-10-13T01:41:32;16.20;76.90
74364;DHT22;62797;49.740;10.154;2023-10-13T01:44:02;16.20;76.50
74364;DHT22;62797;49.740;10.154;2023-10-13T01:46:29;16.30;76.30
74364;DHT22;62797;49.740;10.154;2023-10-13T01:48:55;16.20;76.20
74364;DHT22;62797;49.740;10.154;2023-10-13T01:51:23;16.20;76.80
74364;DHT22;62797;49.740;10.154;2023-10-13T01:53:49;16.20;76.80
74364;DHT22;62797;49.740;10.154;2023-10-13T01:56:22;16.20;76.90
74364;DHT22;62797;49.740;10.154;2023-10-13T01:58:49;16.30;76.60
74364;DHT22;62797;49.740;10.154;2023-10-13T02:01:14;16.40;76.80
74364;DHT22;62797;49.740;10.154;2023-10-13T02:04:01;16.30;76.70
74364;DHT22;62797;49.740;10.154;2023-10-13T02:06:33;16.30;76.50
74364;DHT22;62797;49.740;10.154;2023-10-13T02:09:04;16.30;76.50
74364;DHT22;62797;49.740;10.154;2023-10-13T02:11:38;16.30;76.60
74364;DHT22;62797;49.740;10.154;2023-10-13T02:14:04;16.30;77.30
74364;DHT22;62797;49.740;10.154;2023-10-13T02:16:29;16.30;76.40
74364;DHT22;62797;49.740;10.154;2023-10-13T02:18:57;16.40;76.00
74364;DHT22;62797;49.740;10.154;2023-10-13T02:21:30;16.40;76.30
74364;DHT22;62797;49.740;10.154;2023-10-13T02:23:57;16.50;76.30
74364;DHT22;62797;49.740;10.154;2023-10-13T02:26:30;16.50;76.30
74364;DHT22;62797;49.740;10.154;2023-10-13T02:29:00;16.50;75.90
74364;DHT22;62797;49.740;10.154;2023-10-13T02:31:34;16.40;75.80
74364;DHT22;62797;49.740;10.154;2023-10-13T02:34:00;16.40;75.90
74364;DHT22;62797;49.740;10.154;2023-10-13T02:36:26;16.50;75.80
74364;DHT22;62797;49.740;10.154;2023-10-13T02:39:13;16.50;75.80
74364;DHT22;62797;49.740;10.154;2023-10-13T02:41:39;16.50;75.50
74364;DHT22;62797;49.740;10.154;2023-10-13T02:44:07;16.50;75.80
74364;DHT22;62797;49.740;10.154;2023-10-13T02:46:35;16.50;75.60
74364;DHT22;62797;49.740;10.154;2023-10-13T02:49:03;16.50;75.50
74364;DHT22;62797;49.740;10.154;2023-10-13T02:51:39;16.50;75.50
74364;DHT22;62797;49.740;10.154;2023-10-13T02:54:09;16.50;75.60
74364;DHT22;62797;49.740;10.154;2023-10-13T02:56:44;16.50;75.40
74364;DHT22;62797;49.740;10.154;2023-10-13T02:59:15;16.50;75.30
74364;DHT22;62797;49.740;10.154;2023-10-13T03:01:45;16.50;75.00
74364;DHT22;62797;49.740;10.154;2023-10-13T03:04:10;16.40;75.00
74364;DHT22;62797;49.740;10.154;2023-10-13T03:06:38;16.40;74.90
74364;DHT22;62797;49.740;10.154;2023-10-13T03:09:08;16.40;74.80
74364;DHT22;62797;49.740;10.154;2023-10-13T03:11:50;16.40;74.70
74364;DHT22;62797;49.740;10.154;2023-10-13T03:16:56;16.40;75.00
74364;DHT22;62797;49.740;10.154;2023-10-13T03:19:28;16.30;74.50
74364;DHT22;62797;49.740;10.154;2023-10-13T03:22:03;16.30;75.20
74364;DHT22;62797;49.740;10.154;2023-10-13T03:24:37;16.30;75.20
74364;DHT22;62797;49.740;10.154;2023-10-13T03:27:07;16.40;75.30
74364;DHT22;62797;49.740;10.154;2023-10-13T03:29:38;16.30;75.60
74364;DHT22;62797;49.740;10.154;2023-10-13T03:32:14;16.30;75.20
74364;DHT22;62797;49.740;10.154;2023-10-13T03:34:44;16.20;75.30
74364;DHT22;62797;49.740;10.154;2023-10-13T03:37:26;16.20;75.30
74364;DHT22;62797;49.740;10.154;2023-10-13T03:40:09;16.10;75.60
74364;DHT22;62797;49.740;10.154;2023-10-13T03:42:54;16.10;75.60
74364;DHT22;62797;49.740;10.154;2023-10-13T03:45:41;16.00;75.30
74364;DHT22;62797;49.740;10.154;2023-10-13T03:48:17;15.90;75.70
74364;DHT22;62797;49.740;10.154;2023-10-13T03:50:53;15.90;75.80
74364;DHT22;62797;49.740;10.154;2023-10-13T03:53:41;15.80;75.70
74364;DHT22;62797;49.740;10.154;2023-10-13T03:56:23;15.80;75.70
74364;DHT22;62797;49.740;10.154;2023-10-13T03:58:57;15.80;75.70
74364;DHT22;62797;49.740;10.154;2023-10-13T04:01:24;15.80;75.60
74364;DHT22;62797;49.740;10.154;2023-10-13T04:04:08;15.80;75.70
74364;DHT22;62797;49.740;10.154;2023-10-13T04:06:38;15.80;75.70
74364;DHT22;62797;49.740;10.154;2023-10-13T04:09:17;15.80;75.10
74364;DHT22;62797;49.740;10.154;2023-10-13T04:11:56;15.80;75.30
74364;DHT22;62797;49.740;10.154;2023-10-13T04:14:43;15.70;75.50
74364;DHT22;62797;49.740;10.154;2023-10-13T04:17:21;15.80;75.30
74364;DHT22;62797;49.740;10.154;2023-10-13T04:19:54;15.70;76.20
74364;DHT22;62797;49.740;10.154;2023-10-13T04:22:34;15.70;75.70
74364;DHT22;62797;49.740;10.154;2023-10-13T04:25:12;15.60;75.80
74364;DHT22;62797;49.740;10.154;2023-10-13T04:27:57;15.60;75.80
74364;DHT22;62797;49.740;10.154;2023-10-13T04:30:46;15.60;75.40
74364;DHT22;62797;49.740;10.154;2023-10-13T04:36:06;15.60;75.20
74364;DHT22;62797;49.740;10.154;2023-10-13T04:38:52;15.50;75.20
74364;DHT22;62797;49.740;10.154;2023-10-13T04:41:38;15.50;75.90
74364;DHT22;62797;49.740;10.154;2023-10-13T04:44:17;15.50;75.50
74364;DHT22;62797;49.740;10.154;2023-10-13T04:47:08;15.50;75.20
74364;DHT22;62797;49.740;10.154;2023-10-13T04:49:40;15.50;75.30
74364;DHT22;62797;49.740;10.154;2023-10-13T04:52:09;15.50;75.00
74364;DHT22;62797;49.740;10.154;2023-10-13T04:54:43;15.50;74.80
74364;DHT22;62797;49.740;10.154;2023-10-13T04:57:18;15.50;74.80
74364;DHT22;62797;49.740;10.154;2023-10-13T05:00:04;15.50;74.90
74364;DHT22;62797;49.740;10.154;2023-10-13T05:02:56;15.40;74.70
74364;DHT22;62797;49.740;10.154;2023-10-13T05:05:43;15.30;74.70
74364;DHT22;62797;49.740;10.154;2023-10-13T05:08:27;15.30;74.70
74364;DHT22;62797;49.740;10.154;2023-10-13T05:11:12;15.30;74.70
74364;DHT22;62797;49.740;10.154;2023-10-13T05:14:16;15.30;74.70
74364;DHT22;62797;49.740;10.154;2023-10-13T05:17:17;15.20;74.90
74364;DHT22;62797;49.740;10.154;2023-10-13T05:20:02;15.20;74.60
74364;DHT22;62797;49.740;10.154;2023-10-13T05:22:46;15.20;74.70
74364;DHT22;62797;49.740;10.154;2023-10-13T05:25:35;15.20;74.70
74364;DHT22;62797;49.740;10.154;2023-10-13T05:28:20;15.20;74.20
74364;DHT22;62797;49.740;10.154;2023-10-13T05:31:04;15.10;74.50
74364;DHT22;62797;49.740;10.154;2023-10-13T05:33:48;15.10;74.30
74364;DHT22;62797;49.740;10.154;2023-10-13T05:36:33;15.20;74.30
74364;DHT22;62797;49.740;10.154;2023-10-13T05:39:18;15.20;74.30
74364;DHT22;62797;49.740;10.154;2023-10-13T05:42:03;15.20;74.40
74364;DHT22;62797;49.740;10.154;2023-10-13T05:44:47;15.30;74.10
74364;DHT22;62797;49.740;10.154;2023-10-13T05:47:23;15.30;74.30
74364;DHT22;62797;49.740;10.154;2023-10-13T05:50:12;15.30;74.00
74364;DHT22;62797;49.740;10.154;2023-10-13T05:52:47;15.40;73.80
74364;DHT22;62797;49.740;10.154;2023-10-13T05:55:28;15.40;73.90
74364;DHT22;62797;49.740;10.154;2023-10-13T05:58:13;15.40;73.80
74364;DHT22;62797;49.740;10.154;2023-10-13T06:00:57;15.40;73.80
74364;DHT22;62797;49.740;10.154;2023-10-13T06:03:42;15.30;74.40
74364;DHT22;62797;49.740;10.154;2023-10-13T06:06:26;15.20;73.90
74364;DHT22;62797;49.740;10.154;2023-10-13T06:09:10;15.20;73.80
74364;DHT22;62797;49.740;10.154;2023-10-13T06:11:55;15.20;73.40
74364;DHT22;62797;49.740;10.154;2023-10-13T06:14:40;15.20;73.50
74364;DHT22;62797;49.740;10.154;2023-10-13T06:17:24;15.20;73.50
74364;DHT22;62797;49.740;10.154;2023-10-13T06:20:09;15.20;73.40
74364;DHT22;62797;49.740;10.154;2023-10-13T06:22:53;15.30;73.80
74364;DHT22;62797;49.740;10.154;2023-10-13T06:25:38;15.20;73.40
74364;DHT22;62797;49.740;10.154;2023-10-13T06:28:22;15.30;73.20
74364;DHT22;62797;49.740;10.154;2023-10-13T06:31:07;15.30;72.80
74364;DHT22;62797;49.740;10.154;2023-10-13T06:33:33;15.50;72.70
74364;DHT22;62797;49.740;10.154;2023-10-13T06:36:03;15.50;72.80
74364;DHT22;62797;49.740;10.154;2023-10-13T06:38:29;15.70;72.90
74364;DHT22;62797;49.740;10.154;2023-10-13T06:41:05;15.80;72.20
74364;DHT22;62797;49.740;10.154;2023-10-13T06:45:58;15.90;70.90
74364;DHT22;62797;49.740;10.154;2023-10-13T06:48:29;16.00;70.30
74364;DHT22;62797;49.740;10.154;2023-10-13T06:51:03;16.00;69.80
74364;DHT22;62797;49.740;10.154;2023-10-13T06:53:45;16.10;69.50
74364;DHT22;62797;49.740;10.154;2023-10-13T06:56:16;16.10;69.40
74364;DHT22;62797;49.740;10.154;2023-10-13T06:58:53;16.20;67.50
74364;DHT22;62797;49.740;10.154;2023-10-13T07:01:26;16.20;67.90
74364;DHT22;62797;49.740;10.154;2023-10-13T07:03:51;16.20;66.90
74364;DHT22;62797;49.740;10.154;2023-10-13T07:06:21;16.30;67.10
74364;DHT22;62797;49.740;10.154;2023-10-13T07:08:48;16.30;64.80
74364;DHT22;62797;49.740;10.154;2023-10-13T07:11:27;16.30;65.20
74364;DHT22;62797;49.740;10.154;2023-10-13T07:14:08;16.40;65.70
74364;DHT22;62797;49.740;10.154;2023-10-13T07:16:43;16.50;65.00
74364;DHT22;62797;49.740;10.154;2023-10-13T07:19:13;16.60;65.00
74364;DHT22;62797;49.740;10.154;2023-10-13T07:21:44;16.70;65.30
74364;DHT22;62797;49.740;10.154;2023-10-13T07:24:12;16.80;65.20
74364;DHT22;62797;49.740;10.154;2023-10-13T07:26:39;16.80;64.70
74364;DHT22;62797;49.740;10.154;2023-10-13T07:29:23;16.90;63.70
74364;DHT22;62797;49.740;10.154;2023-10-13T07:31:50;16.90;63.20
74364;DHT22;62797;49.740;10.154;2023-10-13T07:34:16;17.00;62.60
74364;DHT22;62797;49.740;10.154;2023-10-13T07:36:53;17.00;60.90
74364;DHT22;62797;49.740;10.154;2023-10-13T07:39:18;17.00;60.10
74364;DHT22;62797;49.740;10.154;2023-10-13T07:41:49;17.10;61.10
74364;DHT22;62797;49.740;10.154;2023-10-13T07:44:23;17.20;60.20
74364;DHT22;62797;49.740;10.154;2023-10-13T07:46:57;17.30;60.20
74364;DHT22;62797;49.740;10.154;2023-10-13T07:49:30;17.20;60.30
74364;DHT22;62797;49.740;10.154;2023-10-13T07:52:06;17.30;61.00
74364;DHT22;62797;49.740;10.154;2023-10-13T07:54:48;17.40;59.60
74364;DHT22;62797;49.740;10.154;2023-10-13T07:57:33;17.40;58.10
74364;DHT22;62797;49.740;10.154;2023-10-13T07:59:59;17.50;58.00
74364;DHT22;62797;49.740;10.154;2023-10-13T08:02:37;17.60;58.60
74364;DHT22;62797;49.740;10.154;2023-10-13T08:05:17;17.60;58.40
74364;DHT22;62797;49.740;10.154;2023-10-13T08:08:05;17.70;58.30
74364;DHT22;62797;49.740;10.154;2023-10-13T08:10:40;17.80;56.30
74364;DHT22;62797;49.740;10.154;2023-10-13T08:13:08;17.90;56.80
74364;DHT22;62797;49.740;10.154;2023-10-13T08:15:41;18.00;56.60
74364;DHT22;62797;49.740;10.154;2023-10-13T08:18:16;18.10;55.10
74364;DHT22;62797;49.740;10.154;2023-10-13T08:21:01;18.30;54.60
74364;DHT22;62797;49.740;10.154;2023-10-13T08:23:30;18.30;55.10
74364;DHT22;62797;49.740;10.154;2023-10-13T08:26:14;18.40;51.90
74364;DHT22;62797;49.740;10.154;2023-10-13T08:28:59;18.50;52.50
74364;DHT22;62797;49.740;10.154;2023-10-13T08:31:48;18.60;52.40
74364;DHT22;62797;49.740;10.154;2023-10-13T08:34:33;18.80;53.00
74364;DHT22;62797;49.740;10.154;2023-10-13T08:37:26;18.80;51.70
74364;DHT22;62797;49.740;10.154;2023-10-13T08:39:59;19.00;51.70
74364;DHT22;62797;49.740;10.154;2023-10-13T08:42:34;19.10;50.80
74364;DHT22;62797;49.740;10.154;2023-10-13T08:45:10;19.20;45.70
74364;DHT22;62797;49.740;10.154;2023-10-13T08:47:53;19.40;47.40
74364;DHT22;62797;49.740;10.154;2023-10-13T08:50:23;19.60;41.10
74364;DHT22;62797;49.740;10.154;2023-10-13T08:53:09;19.60;40.60
74364;DHT22;62797;49.740;10.154;2023-10-13T08:56:06;19.80;40.80
74364;DHT22;62797;49.740;10.154;2023-10-13T08:58:49;19.90;40.40
74364;DHT22;62797;49.740;10.154;2023-10-13T09:01:29;20.00;38.80
74364;DHT22;62797;49.740;10.154;2023-10-13T09:03:58;20.20;37.00
74364;DHT22;62797;49.740;10.154;2023-10-13T09:06:45;20.30;37.80
74364;DHT22;62797;49.740;10.154;2023-10-13T09:09:23;20.40;34.10
74364;DHT22;62797;49.740;10.154;2023-10-13T09:11:54;20.60;35.60
74364;DHT22;62797;49.740;10.154;2023-10-13T09:14:35;20.80;32.20
74364;DHT22;62797;49.740;10.154;2023-10-13T09:17:05;20.80;32.00
74364;DHT22;62797;49.740;10.154;2023-10-13T09:19:51;20.90;34.70
74364;DHT22;62797;49.740;10.154;2023-10-13T09:22:23;20.90;32.70
74364;DHT22;62797;49.740;10.154;2023-10-13T09:25:08;20.90;31.20
74364;DHT22;62797;49.740;10.154;2023-10-13T09:27:39;21.10;31.10
74364;DHT22;62797;49.740;10.154;2023-10-13T09:30:05;21.20;30.20
74364;DHT22;62797;49.740;10.154;2023-10-13T09:32:36;21.10;29.10
74364;DHT22;62797;49.740;10.154;2023-10-13T09:35:18;21.10;30.50
74364;DHT22;62797;49.740;10.154;2023-10-13T09:37:45;21.20;31.00
74364;DHT22;62797;49.740;10.154;2023-10-13T09:40:15;21.20;31.10
74364;DHT22;62797;49.740;10.154;2023-10-13T09:43:02;21.30;29.50
74364;DHT22;62797;49.740;10.154;2023-10-13T09:45:33;21.70;27.10
74364;DHT22;62797;49.740;10.154;2023-10-13T09:48:10;21.70;27.40
74364;DHT22;62797;49.740;10.154;2023-10-13T09:50:43;21.80;25.80
74364;DHT22;62797;49.740;10.154;2023-10-13T09:53:10;22.00;25.40
74364;DHT22;62797;49.740;10.154;2023-10-13T09:55:44;22.10;25.50
74364;DHT22;62797;49.740;10.154;2023-10-13T09:58:12;22.10;25.70
74364;DHT22;62797;49.740;10.154;2023-10-13T10:00:47;22.20;24.70
74364;DHT22;62797;49.740;10.154;2023-10-13T10:03:15;22.20;25.10
74364;DHT22;62797;49.740;10.154;2023-10-13T10:05:42;22.30;25.60
74364;DHT22;62797;49.740;10.154;2023-10-13T10:08:23;22.50;24.10
74364;DHT22;62797;49.740;10.154;2023-10-13T10:11:19;22.60;23.80
74364;DHT22;62797;49.740;10.154;2023-10-13T10:13:54;22.80;22.70
74364;DHT22;62797;49.740;10.154;2023-10-13T10:17:00;22.90;23.00
74364;DHT22;62797;49.740;10.154;2023-10-13T10:19:33;23.00;22.20
74364;DHT22;62797;49.740;10.154;2023-10-13T10:22:05;23.00;22.50
74364;DHT22;62797;49.740;10.154;2023-10-13T10:24:42;23.30;22.80
74364;DHT22;62797;49.740;10.154;2023-10-13T10:27:09;23.40;23.00
74364;DHT22;62797;49.740;10.154;2023-10-13T10:29:52;23.50;21.70
74364;DHT22;62797;49.740;10.154;2023-10-13T10:32:20;23.60;20.60
74364;DHT22;62797;49.740;10.154;2023-10-13T10:34:49;23.70;20.30
74364;DHT22;62797;49.740;10.154;2023-10-13T10:37:32;23.70;20.90
74364;DHT22;62797;49.740;10.154;2023-10-13T10:40:01;23.70;20.20
74364;DHT22;62797;49.740;10.154;2023-10-13T10:42:34;23.80;19.30
74364;DHT22;62797;49.740;10.154;2023-10-13T10:44:59;23.80;20.10
74364;DHT22;62797;49.740;10.154;2023-10-13T10:47:34;23.90;18.40
74364;DHT22;62797;49.740;10.154;2023-10-13T10:50:05;24.00;20.30
74364;DHT22;62797;49.740;10.154;2023-10-13T10:52:34;24.20;20.20
74364;DHT22;62797;49.740;10.154;2023-10-13T10:55:05;24.30;19.70
74364;DHT22;62797;49.740;10.154;2023-10-13T10:57:36;24.40;19.40
74364;DHT22;62797;49.740;10.154;2023-10-13T11:00:18;24.50;17.50
74364;DHT22;62797;49.740;10.154;2023-10-13T11:02:57;24.70;17.30
74364;DHT22;62797;49.740;10.154;2023-10-13T11:05:24;24.90;16.30
74364;DHT22;62797;49.740;10.154;2023-10-13T11:07:58;24.90;15.50
74364;DHT22;62797;49.740;10.154;2023-10-13T11:10:24;24.70;16.70
74364;DHT22;62797;49.740;10.154;2023-10-13T11:13:00;24.70;16.60
74364;DHT22;62797;49.740;10.154;2023-10-13T11:15:45;24.70;16.50
74364;DHT22;62797;49.740;10.154;2023-10-13T11:18:11;24.70;17.80
74364;DHT22;62797;49.740;10.154;2023-10-13T11:20:49;24.70;18.50
74364;DHT22;62797;49.740;10.154;2023-10-13T11:23:20;24.70;16.90
74364;DHT22;62797;49.740;10.154;2023-10-13T11:25:57;24.70;16.00
74364;DHT22;62797;49.740;10.154;2023-10-13T11:28:25;24.60;16.20
74364;DHT22;62797;49.740;10.154;2023-10-13T11:30:54;24.70;17.50
74364;DHT22;62797;49.740;10.154;2023-10-13T11:33:53;24.80;16.40
74364;DHT22;62797;49.740;10.154;2023-10-13T11:36:21;25.10;15.70
74364;DHT22;62797;49.740;10.154;2023-10-13T11:38:57;25.40;15.80
74364;DHT22;62797;49.740;10.154;2023-10-13T11:41:23;25.90;12.30
74364;DHT22;62797;49.740;10.154;2023-10-13T11:43:52;25.90;11.70
74364;DHT22;62797;49.740;10.154;2023-10-13T11:46:21;25.70;12.00
74364;DHT22;62797;49.740;10.154;2023-10-13T11:49:09;25.80;14.50
74364;DHT22;62797;49.740;10.154;2023-10-13T11:51:46;26.00;12.60
74364;DHT22;62797;49.740;10.154;2023-10-13T11:54:16;26.00;12.40
74364;DHT22;62797;49.740;10.154;2023-10-13T11:56:46;26.10;13.30
74364;DHT22;62797;49.740;10.154;2023-10-13T11:59:13;26.10;13.30
74364;DHT22;62797;49.740;10.154;2023-10-13T12:01:49;26.20;12.60
74364;DHT22;62797;49.740;10.154;2023-10-13T12:04:34;26.10;12.60
74364;DHT22;62797;49.740;10.154;2023-10-13T12:07:07;26.10;11.30
74364;DHT22;62797;49.740;10.154;2023-10-13T12:09:47;26.10;12.00
74364;DHT22;62797;49.740;10.154;2023-10-13T12:12:25;26.10;12.30
74364;DHT22;62797;49.740;10.154;2023-10-13T12:14:52;26.10;11.30
74364;DHT22;62797;49.740;10.154;2023-10-13T12:17:22;26.20;11.50
74364;DHT22;62797;49.740;10.154;2023-10-13T12:19:57;26.00;11.00
74364;DHT22;62797;49.740;10.154;2023-10-13T12:22:24;26.10;12.70
74364;DHT22;62797;49.740;10.154;2023-10-13T12:24:57;26.10;12.40
74364;DHT22;62797;49.740;10.154;2023-10-13T12:27:22;26.20;11.10
74364;DHT22;62797;49.740;10.154;2023-10-13T12:30:01;26.20;12.10
74364;DHT22;62797;49.740;10.154;2023-10-13T12:32:33;26.20;10.60
74364;DHT22;62797;49.740;10.154;2023-10-13T12:35:00;26.20;10.50
74364;DHT22;62797;49.740;10.154;2023-10-13T12:37:46;26.20;10.50
74364;DHT22;62797;49.740;10.154;2023-10-13T12:40:17;26.20;11.60
74364;DHT22;62797;49.740;10.154;2023-10-13T12:43:01;26.20;12.50
74364;DHT22;62797;49.740;10.154;2023-10-13T12:45:47;26.20;10.90
74364;DHT22;62797;49.740;10.154;2023-10-13T12:48:33;26.20;12.60
74364;DHT22;62797;49.740;10.154;2023-10-13T12:51:18;26.20;12.60
74364;DHT22;62797;49.740;10.154;2023-10-13T12:54:04;26.60;11.10
74364;DHT22;62797;49.740;10.154;2023-10-13T12:56:31;26.70;10.50
74364;DHT22;62797;49.740;10.154;2023-10-13T12:58:57;26.80;10.50
74364;DHT22;62797;49.740;10.154;2023-10-13T13:01:24;26.70;10.00
74364;DHT22;62797;49.740;10.154;2023-10-13T13:03:53;26.60;10.30
74364;DHT22;62797;49.740;10.154;2023-10-13T13:06:25;26.50;10.00
74364;DHT22;62797;49.740;10.154;2023-10-13T13:08:57;26.40;10.90
74364;DHT22;62797;49.740;10.154;2023-10-13T13:11:24;26.30;11.00
74364;DHT22;62797;49.740;10.154;2023-10-13T13:13:50;26.20;11.80
74364;DHT22;62797;49.740;10.154;2023-10-13T13:16:18;26.20;10.80
74364;DHT22;62797;49.740;10.154;2023-10-13T13:18:45;26.40;11.80
74364;DHT22;62797;49.740;10.154;2023-10-13T13:21:11;26.50;10.70
74364;DHT22;62797;49.740;10.154;2023-10-13T13:23:46;26.40;11.60
74364;DHT22;62797;49.740;10.154;2023-10-13T13:26:12;26.50;10.20
74364;DHT22;62797;49.740;10.154;2023-10-13T13:28:46;26.70;9.80
74364;DHT22;62797;49.740;10.154;2023-10-13T13:31:19;26.90;9.00
74364;DHT22;62797;49.740;10.154;2023-10-13T13:33:50;27.10;9.80
74364;DHT22;62797;49.740;10.154;2023-10-13T13:36:16;27.10;8.90
74364;DHT22;62797;49.740;10.154;2023-10-13T13:38:43;27.20;8.20
74364;DHT22;62797;49.740;10.154;2023-10-13T13:41:15;27.30;8.60
74364;DHT22;62797;49.740;10.154;2023-10-13T13:43:44;27.40;8.70
74364;DHT22;62797;49.740;10.154;2023-10-13T13:46:19;27.60;7.60
74364;DHT22;62797;49.740;10.154;2023-10-13T13:48:51;27.60;7.90
74364;DHT22;62797;49.740;10.154;2023-10-13T13:51:32;27.40;7.50
74364;DHT22;62797;49.740;10.154;2023-10-13T13:53:59;27.20;7.90
74364;DHT22;62797;49.740;10.154;2023-10-13T13:56:26;27.30;8.00
74364;DHT22;62797;49.740;10.154;2023-10-13T13:58:54;27.40;8.40
74364;DHT22;62797;49.740;10.154;2023-10-13T14:01:24;27.60;8.70
74364;DHT22;62797;49.740;10.154;2023-10-13T14:03:54;27.80;8.20
74364;DHT22;62797;49.740;10.154;2023-10-13T14:06:28;27.80;8.20
74364;DHT22;62797;49.740;10.154;2023-10-13T14:08:58;27.90;9.30
74364;DHT22;62797;49.740;10.154;2023-10-13T14:11:47;28.10;8.60
74364;DHT22;62797;49.740;10.154;2023-10-13T14:14:47;28.40;8.00
74364;DHT22;62797;49.740;10.154;2023-10-13T14:17:23;28.70;6.40
74364;DHT22;62797;49.740;10.154;2023-10-13T14:19:57;28.70;6.10
74364;DHT22;62797;49.740;10.154;2023-10-13T14:22:24;28.50;7.60
74364;DHT22;62797;49.740;10.154;2023-10-13T14:24:53;28.30;7.60
74364;DHT22;62797;49.740;10.154;2023-10-13T14:27:22;28.20;7.10
74364;DHT22;62797;49.740;10.154;2023-10-13T14:29:51;28.20;7.50
74364;DHT22;62797;49.740;10.154;2023-10-13T14:32:20;28.40;7.50
74364;DHT22;62797;49.740;10.154;2023-10-13T14:34:50;28.60;7.50
74364;DHT22;62797;49.740;10.154;2023-10-13T14:37:20;28.80;6.50
74364;DHT22;62797;49.740;10.154;2023-10-13T14:39:55;28.60;6.50
74364;DHT22;62797;49.740;10.154;2023-10-13T14:42:24;28.40;5.80
74364;DHT22;62797;49.740;10.154;2023-10-13T14:44:51;27.90;7.10
74364;DHT22;62797;49.740;10.154;2023-10-13T14:47:24;27.80;7.30
74364;DHT22;62797;49.740;10.154;2023-10-13T14:49:56;27.60;7.90
74364;DHT22;62797;49.740;10.154;2023-10-13T14:52:25;27.50;7.40
74364;DHT22;62797;49.740;10.154;2023-10-13T14:54:51;27.50;8.00
74364;DHT22;62797;49.740;10.154;2023-10-13T14:57:23;27.70;8.50
74364;DHT22;62797;49.740;10.154;2023-10-13T14:59:55;28.10;8.10
74364;DHT22;62797;49.740;10.154;2023-10-13T15:02:22;28.50;8.10
74364;DHT22;62797;49.740;10.154;2023-10-13T15:04:48;29.20;7.60
74364;DHT22;62797;49.740;10.154;2023-10-13T15:07:15;29.50;6.80
74364;DHT22;62797;49.740;10.154;2023-10-13T15:09:42;29.20;6.90
74364;DHT22;62797;49.740;10.154;2023-10-13T15:12:09;28.80;7.40
74364;DHT22;62797;49.740;10.154;2023-10-13T15:14:40;28.80;7.90
74364;DHT22;62797;49.740;10.154;2023-10-13T15:17:08;29.20;7.90
74364;DHT22;62797;49.740;10.154;2023-10-13T15:19:35;29.50;7.00
74364;DHT22;62797;49.740;10.154;2023-10-13T15:22:05;29.70;7.20
74364;DHT22;62797;49.740;10.154;2023-10-13T15:24:33;30.20;7.10
74364;DHT22;62797;49.740;10.154;2023-10-13T15:27:07;30.30;6.30
74364;DHT22;62797;49.740;10.154;2023-10-13T15:29:34;30.50;7.30
74364;DHT22;62797;49.740;10.154;2023-10-13T15:32:03;30.50;5.90
74364;DHT22;62797;49.740;10.154;2023-10-13T15:34:28;30.50;5.00
74364;DHT22;62797;49.740;10.154;2023-10-13T15:36:55;30.20;4.50
74364;DHT22;62797;49.740;10.154;2023-10-13T15:39:22;30.00;5.50
74364;DHT22;62797;49.740;10.154;2023-10-13T15:41:55;29.70;5.00
74364;DHT22;62797;49.740;10.154;2023-10-13T15:44:25;29.40;5.40
74364;DHT22;62797;49.740;10.154;2023-10-13T15:46:55;29.00;6.30
74364;DHT22;62797;49.740;10.154;2023-10-13T15:49:21;28.70;6.60
74364;DHT22;62797;49.740;10.154;2023-10-13T15:51:53;28.40;6.10
74364;DHT22;62797;49.740;10.154;2023-10-13T15:54:21;28.10;7.70
74364;DHT22;62797;49.740;10.154;2023-10-13T15:56:50;27.90;8.10
74364;DHT22;62797;49.740;10.154;2023-10-13T15:59:20;27.70;8.10
74364;DHT22;62797;49.740;10.154;2023-10-13T16:01:48;27.50;9.40
74364;DHT22;62797;49.740;10.154;2023-10-13T16:04:14;27.20;9.40
74364;DHT22;62797;49.740;10.154;2023-10-13T16:06:41;26.90;8.90
74364;DHT22;62797;49.740;10.154;2023-10-13T16:09:07;26.70;10.40
74364;DHT22;62797;49.740;10.154;2023-10-13T16:11:49;26.50;10.80